Time;durP1;ratioP1;P1;durP2;ratioP2;P2;SDS_P1;SDS_P2;PMS_P1;PMS_P2;Temp;Humidity;BMP_temperature;BMP_pressure;BME280_temperature;BME280_humidity;BME280_pressure;Samples;Min_cycle;Max_cycle;Signal;HPM_P1;HPM_P2
2022/08/18 00:02:26;;;;;;;6.68;3.38;;;;;;;19.49;69.49;100296.94;5012405;28;20058;-70
2022/08/18 00:04:53;;;;;;;3.78;2.30;;;;;;;19.48;69.61;100295.34;5016627;28;20025;-70
2022/08/18 00:07:25;;;;;;;6.22;3.33;;;;;;;19.55;69.51;100301.16;4998276;28;20045;-70
2022/08/18 00:09:51;;;;;;;8.70;3.53;;;;;;;19.50;69.27;100304.13;5015543;28;20371;-69
2022/08/18 00:12:24;;;;;;;6.63;3.42;;;;;;;19.45;69.43;100299.56;5015334;28;20018;-70
2022/08/18 00:14:51;;;;;;;8.88;3.30;;;;;;;19.41;69.84;100306.09;5016602;28;20045;-69
2022/08/18 00:17:17;;;;;;;6.13;3.22;;;;;;;19.43;69.62;100309.34;4998588;28;20480;-69
2022/08/18 00:19:43;;;;;;;5.82;2.80;;;;;;;19.38;69.62;100310.34;4998035;28;20034;-69
2022/08/18 00:22:12;;;;;;;8.02;2.92;;;;;;;19.45;69.60;100323.69;5017847;28;20033;-69
2022/08/18 00:24:37;;;;;;;6.88;3.75;;;;;;;19.52;69.47;100318.47;5007946;28;20026;-69
2022/08/18 00:27:04;;;;;;;5.45;2.92;;;;;;;19.52;69.31;100321.22;4998333;28;20334;-70
2022/08/18 00:29:30;;;;;;;5.05;2.88;;;;;;;19.47;69.80;100329.75;5009600;28;20030;-70
2022/08/18 00:31:56;;;;;;;5.68;2.72;;;;;;;19.44;69.54;100330.41;4989479;28;20076;-71
2022/08/18 00:34:22;;;;;;;5.90;2.40;;;;;;;19.49;69.94;100321.91;4996552;28;20026;-69
2022/08/18 00:36:48;;;;;;;6.35;3.22;;;;;;;19.47;69.49;100313.09;5008588;28;20117;-70
2022/08/18 00:39:14;;;;;;;8.40;3.42;;;;;;;19.44;69.62;100311.78;5001580;28;20060;-71
2022/08/18 00:41:40;;;;;;;5.88;2.60;;;;;;;19.49;69.92;100308.03;5008708;28;20810;-70
2022/08/18 00:44:05;;;;;;;7.20;3.70;;;;;;;19.62;69.17;100329.19;5016425;28;20025;-71
2022/08/18 00:46:34;;;;;;;5.03;2.53;;;;;;;19.54;69.72;100321.75;4976359;28;20029;-67
2022/08/18 00:49:00;;;;;;;5.43;3.20;;;;;;;19.45;69.77;100318.13;5012390;28;20031;-70
2022/08/18 00:51:36;;;;;;;8.90;3.65;;;;;;;19.29;70.24;100320.59;4992304;28;20443;-70
2022/08/18 00:54:05;;;;;;;8.75;3.25;;;;;;;19.34;70.49;100326.81;4989081;28;20029;-69
2022/08/18 00:56:36;;;;;;;7.63;3.22;;;;;;;19.40;70.19;100323.88;5003295;28;20036;-69
2022/08/18 00:59:14;;;;;;;5.18;2.97;;;;;;;19.35;70.21;100328.44;4998430;28;20022;-69
2022/08/18 01:01:42;;;;;;;6.63;3.55;;;;;;;19.23;70.92;100322.75;5007143;28;20034;-70
2022/08/18 01:04:15;;;;;;;7.05;3.83;;;;;;;19.19;70.81;100322.56;5008558;28;20037;-70
2022/08/18 01:06:50;;;;;;;6.53;3.78;;;;;;;19.17;70.84;100319.34;5003187;28;20030;-69
2022/08/18 01:09:16;;;;;;;8.63;4.25;;;;;;;19.25;70.64;100323.22;5016211;28;20026;-70
2022/08/18 01:11:44;;;;;;;4.80;3.30;;;;;;;19.23;70.72;100317.22;4977361;28;20080;-71
2022/08/18 01:14:17;;;;;;;5.53;3.65;;;;;;;19.06;70.82;100311.69;5015600;28;20091;-69
2022/08/18 01:22:29;;;;;;;7.75;4.00;;;;;;;19.00;71.26;100314.59;5009701;28;20041;-69
2022/08/18 01:27:49;;;;;;;9.02;4.10;;;;;;;18.99;71.53;100303.84;4984359;28;20431;-69
2022/08/18 01:30:17;;;;;;;7.32;4.18;;;;;;;18.93;72.02;100303.19;4991651;28;20061;-70
2022/08/18 01:32:44;;;;;;;7.05;3.90;;;;;;;18.85;72.13;100306.72;5017084;28;20034;-70
2022/08/18 01:35:13;;;;;;;5.43;2.97;;;;;;;18.83;72.27;100300.69;5012124;28;20084;-70
2022/08/18 01:37:40;;;;;;;8.43;3.97;;;;;;;18.94;71.63;100293.75;5017257;28;20056;-70
2022/08/18 01:40:07;;;;;;;9.20;3.88;;;;;;;18.94;71.71;100299.28;5010490;28;20084;-73
2022/08/18 01:42:34;;;;;;;11.25;4.18;;;;;;;18.87;72.46;100298.94;4996411;28;20026;-69
2022/08/18 01:45:02;;;;;;;11.18;4.97;;;;;;;18.74;72.68;100291.59;5012655;28;20018;-69
2022/08/18 01:47:28;;;;;;;10.70;4.47;;;;;;;18.64;72.48;100282.44;4990579;28;20030;-70
2022/08/18 01:49:53;;;;;;;7.32;3.80;;;;;;;18.58;73.06;100292.03;5008914;28;20088;-70
2022/08/18 01:52:20;;;;;;;7.55;3.95;;;;;;;18.49;73.75;100288.44;5011726;28;20117;-70
2022/08/18 01:54:47;;;;;;;7.30;4.07;;;;;;;18.45;73.70;100287.47;4991154;28;20030;-70
2022/08/18 01:57:16;;;;;;;9.02;3.92;;;;;;;18.46;73.72;100294.63;5026660;28;20458;-69
2022/08/18 01:59:41;;;;;;;10.40;4.38;;;;;;;18.52;73.89;100296.09;5023706;28;20041;-69
2022/08/18 02:02:11;;;;;;;5.78;3.45;;;;;;;18.58;73.19;100280.97;5013397;28;20026;-70
2022/08/18 02:04:36;;;;;;;6.88;3.60;;;;;;;18.62;73.80;100281.94;5012445;28;20041;-69
2022/08/18 02:07:06;;;;;;;6.47;3.75;;;;;;;18.61;nan;100285.84;5010545;28;20040;-70
2022/08/18 02:09:32;;;;;;;6.60;3.50;;;;;;;18.58;73.75;100272.66;4994937;28;20084;-71
2022/08/18 02:11:58;;;;;;;11.15;4.82;;;;;;;18.66;73.49;100271.84;5003015;28;20021;-69
2022/08/18 02:14:24;;;;;;;7.22;5.05;;;;;;;18.56;73.73;100269.41;5014586;28;20467;-70
2022/08/18 02:16:49;;;;;;;13.70;5.28;;;;;;;18.49;73.97;100266.31;5010882;28;20028;-71
2022/08/18 02:19:15;;;;;;;8.55;4.50;;;;;;;18.49;74.21;100278.19;4999500;28;20117;-70
2022/08/18 02:21:40;;;;;;;11.32;4.53;;;;;;;18.48;74.75;100278.50;4994143;28;20058;-70
2022/08/18 02:24:06;;;;;;;6.03;3.95;;;;;;;18.52;74.05;100267.63;5017701;28;20064;-69
2022/08/18 02:26:31;;;;;;;4.38;3.35;;;;;;;18.54;74.55;100274.44;4995468;28;20475;-70
2022/08/18 02:28:57;;;;;;;10.00;4.35;;;;;;;18.52;74.12;100281.47;5013368;28;20117;-70
2022/08/18 02:31:24;;;;;;;11.77;5.97;;;;;;;18.49;74.54;100277.38;5007663;28;20029;-70
2022/08/18 02:33:50;;;;;;;7.75;4.45;;;;;;;18.46;75.15;100283.56;5010144;28;20084;-70
2022/08/18 02:36:16;;;;;;;5.53;3.20;;;;;;;18.56;74.18;100277.72;5013942;28;20454;-70
2022/08/18 02:38:43;;;;;;;10.20;4.75;;;;;;;18.63;74.39;100286.34;5012038;28;20034;-70
2022/08/18 02:41:10;;;;;;;5.22;3.60;;;;;;;18.76;73.69;100283.75;5012162;28;20026;-70
2022/08/18 02:43:37;;;;;;;6.85;3.63;;;;;;;18.71;73.80;100283.94;5010490;28;20022;-70
2022/08/18 02:46:05;;;;;;;7.65;4.03;;;;;;;18.61;74.44;100280.31;4994606;28;20030;-70
2022/08/18 02:51:08;;;;;;;6.72;3.70;;;;;;;18.44;74.86;100280.28;5019972;28;20419;-70
2022/08/18 02:53:35;;;;;;;10.10;5.43;;;;;;;18.42;75.34;100277.84;5012525;28;20053;-70
2022/08/18 02:56:22;;;;;;;11.63;5.50;;;;;;;18.41;75.04;100280.94;5022548;28;20072;-70
2022/08/18 02:58:53;;;;;;;7.63;3.72;;;;;;;18.55;74.67;100276.06;5002389;28;20042;-69
2022/08/18 03:01:20;;;;;;;6.15;3.65;;;;;;;18.64;74.23;100273.31;5009453;28;20030;-70
2022/08/18 03:03:47;;;;;;;11.32;4.70;;;;;;;18.57;74.23;100273.78;5013187;28;20030;-69
2022/08/18 03:06:12;;;;;;;6.85;3.60;;;;;;;18.52;74.41;100276.72;5006175;28;20077;-71
2022/08/18 03:08:38;;;;;;;9.40;4.50;;;;;;;18.51;74.45;100280.63;4980627;28;20058;-70
2022/08/18 03:11:04;;;;;;;5.95;3.45;;;;;;;18.52;74.87;100282.25;5017261;28;20485;-71
2022/08/18 03:13:29;;;;;;;7.80;4.63;;;;;;;18.54;74.96;100279.97;5017335;28;20491;-70
2022/08/18 03:15:55;;;;;;;8.80;4.22;;;;;;;18.51;74.92;100274.28;5020936;28;20045;-71
2022/08/18 03:18:22;;;;;;;7.68;3.63;;;;;;;18.52;74.97;100271.19;4991629;28;20085;-70
2022/08/18 03:20:48;;;;;;;6.25;3.67;;;;;;;18.60;74.83;100273.16;5016847;28;20476;-69
2022/08/18 03:23:13;;;;;;;4.88;3.53;;;;;;;18.62;74.64;100270.88;4992651;28;20033;-70
2022/08/18 03:25:45;;;;;;;7.05;2.80;;;;;;;18.65;74.55;100263.88;4995708;28;20045;-70
2022/08/18 03:28:11;;;;;;;5.97;3.53;;;;;;;18.73;74.44;100265.00;4992533;28;20121;-70
2022/08/18 03:30:36;;;;;;;6.25;3.78;;;;;;;18.68;74.15;100257.69;5021540;28;20021;-71
2022/08/18 03:33:02;;;;;;;9.60;6.05;;;;;;;18.62;74.30;100259.78;4975147;28;20365;-70
2022/08/18 03:35:28;;;;;;;11.57;5.80;;;;;;;18.45;74.79;100251.47;4998102;28;20041;-71
2022/08/18 03:37:57;;;;;;;11.55;4.88;;;;;;;18.44;74.95;100264.50;4992736;28;20033;-70
2022/08/18 03:40:23;;;;;;;12.02;4.90;;;;;;;18.36;75.38;100264.50;5007988;28;20029;-70
2022/08/18 03:42:48;;;;;;;5.78;3.38;;;;;;;18.28;75.37;100258.59;4978586;28;20121;-70
2022/08/18 03:45:14;;;;;;;4.10;3.00;;;;;;;18.28;75.33;100250.31;4955414;28;20495;-71
2022/08/18 03:47:39;;;;;;;8.00;3.78;;;;;;;18.35;76.07;100257.31;4960421;28;20042;-70
2022/08/18 03:50:05;;;;;;;6.25;3.47;;;;;;;18.35;75.85;100265.63;5009930;28;20072;-70
2022/08/18 03:52:31;;;;;;;6.70;3.92;;;;;;;18.34;75.49;100258.44;5009751;28;20036;-70
2022/08/18 03:54:56;;;;;;;7.55;3.72;;;;;;;18.44;75.17;100260.91;4997003;28;20029;-70
2022/08/18 03:57:22;;;;;;;9.63;3.97;;;;;;;18.45;75.66;100257.00;4989627;28;20095;-69
2022/08/18 03:59:47;;;;;;;9.10;4.38;;;;;;;18.53;75.14;100260.91;4992640;28;20064;-69
2022/08/18 04:02:14;;;;;;;9.80;4.47;;;;;;;18.53;74.78;100253.44;5014846;28;20108;-69
2022/08/18 04:04:39;;;;;;;9.13;4.07;;;;;;;18.58;75.00;100256.03;5011100;28;20053;-69
2022/08/18 04:07:07;;;;;;;6.20;3.95;;;;;;;18.75;74.47;100257.19;4991567;28;20447;-70
2022/08/18 04:09:34;;;;;;;7.55;3.50;;;;;;;18.87;74.48;100262.94;5010460;28;20025;-70
2022/08/18 04:12:09;;;;;;;16.80;6.72;;;;;;;18.80;73.84;100262.56;5007018;28;20045;-68
2022/08/18 04:14:36;;;;;;;11.75;5.25;;;;;;;18.69;74.87;100264.03;5001440;28;20555;-70
2022/08/18 04:17:02;;;;;;;11.50;5.10;;;;;;;18.64;74.70;100263.03;5011739;28;20030;-70
2022/08/18 04:19:27;;;;;;;9.23;4.03;;;;;;;18.67;74.92;100262.41;5010654;28;20033;-70
2022/08/18 04:21:56;;;;;;;7.22;4.35;;;;;;;18.64;74.59;100268.59;4991962;28;20034;-70
2022/08/18 04:24:22;;;;;;;9.73;4.68;;;;;;;18.68;74.68;100268.75;5011001;28;20033;-69
2022/08/18 04:26:48;;;;;;;13.93;5.30;;;;;;;18.61;74.60;100262.88;5011431;28;20026;-68
2022/08/18 04:29:16;;;;;;;8.93;4.00;;;;;;;18.62;74.73;100279.19;5009622;28;20037;-71
2022/08/18 04:31:42;;;;;;;11.40;5.95;;;;;;;18.54;75.51;100273.63;5019713;28;20025;-70
2022/08/18 04:34:08;;;;;;;13.68;5.32;;;;;;;18.49;75.44;100271.84;4992161;28;20030;-69
2022/08/18 04:36:35;;;;;;;10.20;5.05;;;;;;;18.47;75.57;100274.09;5012335;28;20049;-70
2022/08/18 04:39:02;;;;;;;12.82;5.05;;;;;;;18.56;75.31;100274.94;5008821;28;20491;-71
2022/08/18 04:41:28;;;;;;;8.68;5.28;;;;;;;18.53;75.64;100275.59;5010820;28;20068;-71
2022/08/18 04:44:01;;;;;;;7.65;3.72;;;;;;;18.50;75.09;100284.56;5012601;28;20477;-71
2022/08/18 04:46:35;;;;;;;17.52;8.32;;;;;;;18.44;75.37;100280.28;5003623;28;20026;-68
2022/08/18 04:49:09;;;;;;;25.25;8.75;;;;;;;18.25;76.05;100267.56;4995518;28;20047;-70
2022/08/18 04:51:35;;;;;;;19.00;8.45;;;;;;;18.23;76.29;100286.41;5008432;28;20463;-70
2022/08/18 04:54:00;;;;;;;23.15;9.70;;;;;;;18.09;77.27;100275.50;5013845;28;20030;-70
2022/08/18 04:56:33;;;;;;;11.02;6.10;;;;;;;18.10;77.44;100270.75;5015957;28;20053;-71
2022/08/18 04:59:03;;;;;;;9.88;5.80;;;;;;;18.20;77.06;100276.00;5000699;28;20109;-72
2022/08/18 05:01:30;;;;;;;13.07;5.43;;;;;;;18.16;77.20;100266.69;5016015;28;20022;-69
2022/08/18 05:03:57;;;;;;;9.15;4.80;;;;;;;18.25;77.30;100278.63;4997452;28;20032;-69
2022/08/18 05:06:25;;;;;;;16.75;6.00;;;;;;;18.25;76.60;100275.88;5014472;28;20021;-69
2022/08/18 05:08:53;;;;;;;8.80;4.80;;;;;;;18.21;76.82;100272.09;5015033;28;20033;-70
2022/08/18 05:11:20;;;;;;;18.67;6.57;;;;;;;18.21;76.85;100265.72;4996298;28;20049;-68
2022/08/18 05:13:47;;;;;;;11.98;6.72;;;;;;;18.18;76.96;100264.44;5008691;28;20129;-70
2022/08/18 05:16:13;;;;;;;15.18;6.78;;;;;;;18.19;77.18;100276.31;4989082;28;20058;-70
2022/08/18 05:18:41;;;;;;;11.02;6.32;;;;;;;18.12;77.61;100279.53;5013549;28;20380;-70
2022/08/18 05:21:13;;;;;;;16.30;7.00;;;;;;;18.17;77.84;100282.19;5013687;28;20117;-70
2022/08/18 05:23:42;;;;;;;6.65;4.53;;;;;;;18.17;77.59;100279.41;5009842;28;20034;-69
2022/08/18 05:26:08;;;;;;;11.23;6.57;;;;;;;18.20;77.83;100273.22;5018650;28;20092;-71
2022/08/18 05:28:35;;;;;;;10.00;5.85;;;;;;;18.20;77.46;100270.47;5015798;28;20041;-70
2022/08/18 05:31:10;;;;;;;11.77;6.40;;;;;;;18.22;77.52;100272.91;4995826;28;20033;-71
2022/08/18 05:33:39;;;;;;;19.35;8.57;;;;;;;18.21;77.43;100272.09;5021234;28;20030;-69
2022/08/18 05:36:22;;;;;;;17.60;7.20;;;;;;;18.20;78.03;100270.47;4994497;28;20036;-69
2022/08/18 05:38:59;;;;;;;21.52;8.98;;;;;;;18.19;78.12;100268.81;5009568;28;20029;-68
2022/08/18 05:41:37;;;;;;;20.48;9.70;;;;;;;18.12;77.71;100274.84;5015603;28;20030;-70
2022/08/18 05:44:04;;;;;;;17.52;7.70;;;;;;;18.05;78.36;100263.41;5015611;28;20033;-70
2022/08/18 05:46:57;;;;;;;20.85;9.07;;;;;;;18.11;78.56;100275.97;5009987;28;20025;-69
2022/08/18 05:49:24;;;;;;;29.83;10.80;;;;;;;18.10;78.47;100274.31;5013732;28;20046;-70
2022/08/18 05:52:00;;;;;;;27.48;10.73;;;;;;;18.05;78.62;100271.72;5010994;28;20468;-69
2022/08/18 05:57:32;;;;;;;13.05;6.40;;;;;;;18.18;78.34;100278.28;5000200;28;20044;-70
2022/08/18 05:59:59;;;;;;;20.88;8.45;;;;;;;18.24;78.32;100278.94;4992238;28;20018;-69
2022/08/18 06:02:46;;;;;;;17.08;7.70;;;;;;;18.24;78.62;100282.53;5014124;28;20052;-72
2022/08/18 06:05:24;;;;;;;17.15;8.48;;;;;;;18.26;78.15;100284.97;5012144;28;20022;-71
2022/08/18 06:07:59;;;;;;;17.63;7.95;;;;;;;18.26;78.19;100280.25;5010544;28;20136;-72
2022/08/18 06:10:43;;;;;;;20.10;8.75;;;;;;;18.24;77.67;100277.00;5005413;28;20804;-72
2022/08/18 06:13:10;;;;;;;25.80;10.57;;;;;;;18.22;78.12;100270.94;5016395;28;20029;-72
2022/08/18 06:15:47;;;;;;;24.02;9.30;;;;;;;18.20;78.67;100276.00;4998251;28;20054;-72
2022/08/18 06:18:38;;;;;;;18.63;8.15;;;;;;;18.26;78.19;100287.72;5008740;28;20037;-71
2022/08/18 06:21:20;;;;;;;26.85;10.98;;;;;;;18.28;78.04;100282.69;5015338;28;20368;-70
2022/08/18 06:24:07;;;;;;;24.80;10.68;;;;;;;18.27;78.78;100287.41;5010666;28;20080;-71
2022/08/18 06:26:57;;;;;;;28.52;10.68;;;;;;;18.27;78.43;100287.41;5009551;28;20060;-70
2022/08/18 06:29:23;;;;;;;21.65;9.30;;;;;;;18.27;78.39;100287.41;5013864;28;20029;-70
2022/08/18 06:32:10;;;;;;;12.82;6.78;;;;;;;18.40;78.36;100284.81;5015737;28;20483;-70
2022/08/18 06:34:41;;;;;;;25.35;9.35;;;;;;;18.50;77.48;100284.56;5020025;28;20499;-71
2022/08/18 06:40:36;;;;;;;28.17;11.20;;;;;;;18.49;77.67;100288.44;4986570;28;20088;-71
2022/08/18 06:43:01;;;;;;;17.88;9.20;;;;;;;18.48;77.74;100281.28;4977996;28;20030;-71
2022/08/18 06:45:34;;;;;;;23.25;7.85;;;;;;;18.49;77.81;100282.91;4996022;28;20041;-72
2022/08/18 06:48:11;;;;;;;22.45;9.30;;;;;;;18.51;77.87;100280.63;4996279;28;20083;-71
2022/08/18 06:50:59;;;;;;;33.90;12.35;;;;;;;18.50;77.74;100290.09;4993224;28;20508;-72
2022/08/18 06:53:52;;;;;;;25.77;12.02;;;;;;;18.51;77.90;100290.88;4994958;28;20025;-71
2022/08/18 06:56:39;;;;;;;26.65;11.50;;;;;;;18.55;77.60;100287.16;5010875;28;20030;-70
2022/08/18 06:59:17;;;;;;;27.08;11.38;;;;;;;18.69;77.88;100291.72;5012222;28;20091;-71
2022/08/18 07:01:44;;;;;;;26.10;10.68;;;;;;;18.87;77.06;100296.19;4991610;28;20479;-70
2022/08/18 07:04:29;;;;;;;25.75;9.80;;;;;;;19.01;76.52;100294.06;4988137;28;20435;-71
2022/08/18 07:06:55;;;;;;;20.25;9.32;;;;;;;19.16;76.36;100289.97;4995690;28;20383;-71
2022/08/18 07:09:23;;;;;;;18.80;9.50;;;;;;;19.22;75.52;100293.41;5011862;28;20029;-70
2022/08/18 07:12:07;;;;;;;22.08;10.32;;;;;;;19.28;75.78;100292.09;5011274;28;20021;-70
2022/08/18 07:14:53;;;;;;;20.88;9.68;;;;;;;19.34;75.29;100304.63;4994018;28;20033;-71
2022/08/18 07:17:26;;;;;;;11.23;6.22;;;;;;;19.51;75.22;100301.00;5005341;28;20030;-72
2022/08/18 07:20:03;;;;;;;17.90;8.02;;;;;;;19.77;74.51;100310.41;5025221;28;20029;-71
2022/08/18 07:22:29;;;;;;;24.70;10.75;;;;;;;19.86;73.94;100311.25;5027169;28;20035;-72
2022/08/18 07:24:58;;;;;;;25.65;9.25;;;;;;;19.90;73.13;100303.84;5031732;28;20037;-71
2022/08/18 07:27:47;;;;;;;22.13;9.80;;;;;;;19.99;73.37;100304.66;5011251;28;20087;-73
2022/08/18 07:30:35;;;;;;;18.23;9.70;;;;;;;20.11;72.78;100317.03;5027655;28;20105;-71
2022/08/18 07:33:03;;;;;;;18.77;9.50;;;;;;;20.24;72.14;100304.88;5026843;28;20443;-71
2022/08/18 07:35:38;;;;;;;15.18;8.02;;;;;;;20.43;71.51;100298.06;5018209;28;20033;-71
2022/08/18 07:38:16;;;;;;;22.50;10.82;;;;;;;20.64;70.86;100292.56;5027593;28;20048;-71
2022/08/18 07:40:57;;;;;;;16.25;8.82;;;;;;;21.02;70.03;100295.22;5027227;28;20030;-69
2022/08/18 07:43:44;;;;;;;20.00;9.10;;;;;;;21.04;68.68;100295.72;5024790;28;20097;-70
2022/08/18 07:46:20;;;;;;;20.63;8.82;;;;;;;21.13;68.45;100297.59;5028018;28;20029;-69
2022/08/18 07:48:46;;;;;;;16.73;8.48;;;;;;;21.25;67.59;100297.66;5033475;28;20052;-73
2022/08/18 07:51:46;;;;;;;21.38;9.27;;;;;;;21.40;67.37;100299.78;5025705;28;20051;-72
2022/08/18 07:54:17;;;;;;;21.42;9.32;;;;;;;21.41;67.24;100309.75;5035908;28;20014;-71
2022/08/18 07:57:13;;;;;;;18.55;10.32;;;;;;;21.41;66.63;100304.19;5034249;28;20033;-71
2022/08/18 07:59:48;;;;;;;21.67;11.63;;;;;;;21.54;66.25;100315.41;5027982;28;20036;-71
2022/08/18 08:02:56;;;;;;;17.60;10.43;;;;;;;21.57;66.46;100315.50;5032471;28;20029;-72
2022/08/18 08:05:52;;;;;;;15.98;8.65;;;;;;;21.58;65.88;100325.50;5030279;28;20022;-73
2022/08/18 08:08:32;;;;;;;16.85;10.18;;;;;;;21.51;66.21;100321.63;5028284;28;20548;-72
2022/08/18 08:11:16;;;;;;;19.50;10.88;;;;;;;21.45;66.47;100327.38;5025943;28;20021;-71
2022/08/18 08:14:06;;;;;;;14.70;7.60;;;;;;;21.47;66.49;100326.25;5027851;28;20028;-72
2022/08/18 08:16:43;;;;;;;20.75;10.30;;;;;;;21.52;66.13;100323.25;5030146;28;20128;-73
2022/08/18 08:20:00;;;;;;;24.65;11.82;;;;;;;21.54;66.03;100316.22;5035929;28;20491;-72
2022/08/18 08:22:30;;;;;;;17.42;9.43;;;;;;;21.52;66.16;100317.69;4949576;29;20512;-72
2022/08/18 08:25:05;;;;;;;13.60;7.97;;;;;;;21.65;65.86;100318.56;5019325;28;20528;-71
2022/08/18 08:28:02;;;;;;;10.50;6.05;;;;;;;22.00;65.79;100318.97;5026870;28;20079;-71
2022/08/18 08:30:34;;;;;;;15.52;9.15;;;;;;;22.16;64.21;100315.50;5030005;28;20032;-71
2022/08/18 08:33:34;;;;;;;16.40;7.68;;;;;;;22.09;64.55;100319.69;5031830;28;20025;-71
2022/08/18 08:36:06;;;;;;;16.17;8.57;;;;;;;22.00;64.28;100321.75;5029374;28;20029;-72
2022/08/18 08:38:55;;;;;;;15.80;8.48;;;;;;;21.84;64.98;100320.78;5028274;28;20087;-71
2022/08/18 08:41:57;;;;;;;18.50;9.65;;;;;;;21.60;65.18;100319.59;5026877;28;20790;-71
2022/08/18 08:44:28;;;;;;;18.17;9.07;;;;;;;21.40;66.02;100322.03;4992357;28;20483;-71
2022/08/18 08:47:01;;;;;;;15.88;10.07;;;;;;;21.38;66.36;100318.78;5027679;28;20029;-72
2022/08/18 08:49:38;;;;;;;19.42;9.57;;;;;;;21.48;65.88;100316.72;5033163;28;20029;-71
2022/08/18 08:52:16;;;;;;;13.90;8.85;;;;;;;21.63;65.57;100318.09;5031762;28;20026;-72
2022/08/18 08:55:01;;;;;;;18.70;8.38;;;;;;;21.74;64.99;100319.25;5026960;28;20076;-75
2022/08/18 08:57:34;;;;;;;20.35;8.90;;;;;;;21.87;63.74;100317.31;5012850;28;20053;-73
2022/08/18 09:00:03;;;;;;;17.65;8.38;;;;;;;22.20;63.38;100322.00;5026157;28;20037;-73
2022/08/18 09:02:57;;;;;;;10.63;6.20;;;;;;;22.48;62.71;100314.59;5018350;28;20030;-71
2022/08/18 09:05:26;;;;;;;12.10;6.22;;;;;;;22.87;61.47;100313.34;5028889;28;20447;-72
2022/08/18 09:08:05;;;;;;;14.23;7.47;;;;;;;23.09;60.54;100310.06;5017788;28;20037;-70
2022/08/18 09:10:48;;;;;;;10.73;7.07;;;;;;;23.23;59.32;100308.88;5026460;28;20053;-71
2022/08/18 09:13:38;;;;;;;9.90;5.63;;;;;;;23.50;59.20;100319.19;5037152;28;20637;-72
2022/08/18 09:16:43;;;;;;;14.30;7.18;;;;;;;23.65;58.22;100319.59;5022979;28;20825;-71
2022/08/18 09:19:30;;;;;;;13.55;7.82;;;;;;;23.40;58.17;100319.72;4989342;28;20048;-70
2022/08/18 09:22:08;;;;;;;14.40;7.53;;;;;;;23.19;58.49;100319.94;5011085;28;20125;-71
2022/08/18 09:24:46;;;;;;;11.77;6.00;;;;;;;23.07;59.40;100317.97;5010610;28;20021;-72
2022/08/18 09:27:40;;;;;;;9.50;5.38;;;;;;;23.12;59.11;100314.94;5031398;28;20018;-72
2022/08/18 09:30:07;;;;;;;;;;;;;;;23.40;58.76;100311.34;5016678;28;20021;-72
2022/08/18 09:33:02;;;;;;;11.25;5.22;;;;;;;23.76;57.70;100320.69;5031278;28;19955;-73
2022/08/18 09:35:43;;;;;;;9.93;5.63;;;;;;;23.91;55.63;100312.72;5022877;28;20033;-71
2022/08/18 09:44:11;;;;;;;9.95;5.63;;;;;;;24.67;53.41;100332.94;5037107;28;20075;-71
2022/08/18 09:46:42;;;;;;;9.80;4.65;;;;;;;24.72;53.67;100320.66;5036779;28;20025;-71
2022/08/18 09:49:26;;;;;;;5.55;4.05;;;;;;;24.68;54.05;100322.59;5025134;28;20025;-72
2022/08/18 09:51:52;;;;;;;8.85;4.20;;;;;;;24.31;53.56;100326.50;5024238;28;20029;-72
2022/08/18 09:54:23;;;;;;;9.25;5.63;;;;;;;24.10;53.41;100323.97;5023328;28;20367;-70
2022/08/18 09:56:48;;;;;;;5.88;3.72;;;;;;;24.13;54.78;100320.47;5029817;28;20468;-73
2022/08/18 09:59:32;;;;;;;8.18;3.97;;;;;;;24.40;54.00;100323.53;5015514;28;20033;-70
2022/08/18 10:02:36;;;;;;;6.88;4.30;;;;;;;24.80;52.35;100322.47;5024639;28;20034;-70
2022/08/18 10:05:17;;;;;;;6.30;3.40;;;;;;;25.30;52.02;100321.91;5033559;28;20100;-71
2022/08/18 10:08:05;;;;;;;10.15;4.35;;;;;;;25.59;49.60;100321.28;5029295;28;20043;-71
2022/08/18 10:10:57;;;;;;;9.95;4.47;;;;;;;25.87;48.81;100320.19;5025814;28;20026;-71
2022/08/18 10:13:43;;;;;;;7.18;4.00;;;;;;;26.21;47.93;100306.41;5041178;28;20040;-72
2022/08/18 10:16:30;;;;;;;7.25;3.13;;;;;;;26.47;47.33;100310.38;5034240;28;20129;-72
2022/08/18 10:19:05;;;;;;;5.70;3.22;;;;;;;26.59;46.00;100313.00;5029649;28;20434;-70
2022/08/18 10:21:57;;;;;;;6.45;3.95;;;;;;;26.68;45.11;100312.75;5011654;28;20149;-70
2022/08/18 10:24:29;;;;;;;8.35;3.75;;;;;;;26.70;45.41;100312.38;5032228;28;20366;-71
2022/08/18 10:26:54;;;;;;;6.15;3.40;;;;;;;26.75;45.16;100309.22;5031020;28;20798;-71
2022/08/18 10:29:22;;;;;;;6.13;3.78;;;;;;;27.18;43.92;100295.75;5026309;28;20076;-72
2022/08/18 10:32:04;;;;;;;6.25;3.67;;;;;;;27.50;43.24;100295.34;5019707;28;20036;-73
2022/08/18 10:34:38;;;;;;;7.20;3.13;;;;;;;27.86;42.51;100292.88;5038836;28;20499;-73
2022/08/18 10:37:35;;;;;;;6.55;2.88;;;;;;;27.46;41.96;100286.06;5035639;28;20033;-72
2022/08/18 10:40:18;;;;;;;4.72;2.20;;;;;;;28.51;39.79;100301.84;5011456;28;20034;-71
2022/08/18 10:43:06;;;;;;;8.90;2.90;;;;;;;29.14;37.75;100301.78;5025090;28;20028;-73
2022/08/18 10:45:42;;;;;;;3.80;2.60;;;;;;;28.60;37.34;100302.28;5012667;28;20033;-73
2022/08/18 10:48:18;;;;;;;6.90;2.72;;;;;;;27.90;39.34;100298.53;5033590;28;20060;-72
2022/08/18 10:50:50;;;;;;;3.60;2.35;;;;;;;27.74;39.97;100310.00;5035558;28;20043;-72
2022/08/18 10:53:25;;;;;;;7.78;2.40;;;;;;;28.60;39.24;100307.91;5030113;28;20049;-70
2022/08/18 10:56:00;;;;;;;3.38;2.20;;;;;;;29.51;38.17;100301.53;5032348;28;20128;-71
2022/08/18 10:58:35;;;;;;;4.65;2.72;;;;;;;32.43;33.90;100292.00;5024570;28;20030;-71
2022/08/18 11:01:29;;;;;;;5.53;2.58;;;;;;;36.32;27.91;100298.53;5026738;28;20025;-71
2022/08/18 11:04:03;;;;;;;6.88;2.45;;;;;;;38.42;24.00;100303.13;5024081;28;20442;-71
2022/08/18 11:06:38;;;;;;;3.08;2.10;;;;;;;37.05;25.52;100283.88;5034979;28;20112;-72
2022/08/18 11:09:07;;;;;;;4.53;2.45;;;;;;;34.00;28.43;100293.25;5027669;28;20048;-72
2022/08/18 11:11:43;;;;;;;2.75;2.17;;;;;;;32.08;31.79;100288.31;5030289;28;20452;-71
2022/08/18 11:14:08;;;;;;;3.58;2.05;;;;;;;33.08;30.40;100282.81;5018250;28;20114;-70
2022/08/18 11:16:51;;;;;;;2.90;1.73;;;;;;;36.73;26.26;100279.09;5014345;28;20495;-71
2022/08/18 11:19:21;;;;;;;5.45;1.95;;;;;;;36.11;25.07;100277.09;5036961;28;20064;-71
2022/08/18 11:21:49;;;;;;;3.33;1.98;;;;;;;33.58;27.78;100270.78;5030579;28;20068;-70
2022/08/18 11:24:26;;;;;;;1.40;1.20;;;;;;;31.81;29.98;100263.47;5028694;28;20021;-72
2022/08/18 11:26:58;;;;;;;1.65;1.05;;;;;;;32.63;29.03;100265.94;5036493;28;20024;-71
2022/08/18 11:29:41;;;;;;;1.70;1.05;;;;;;;33.77;26.64;100256.38;5026996;28;20127;-72
2022/08/18 11:32:34;;;;;;;2.85;1.42;;;;;;;36.32;24.38;100268.00;5023641;28;20021;-70
2022/08/18 11:35:17;;;;;;;2.30;1.20;;;;;;;40.00;20.00;100278.28;5030239;28;20029;-70
2022/08/18 11:37:56;;;;;;;1.17;0.90;;;;;;;42.66;17.27;100269.72;5011293;28;20029;-72
2022/08/18 11:40:26;;;;;;;4.30;1.00;;;;;;;44.31;16.12;100282.50;5011405;28;20024;-72
2022/08/18 11:43:00;;;;;;;1.08;1.00;;;;;;;44.89;14.55;100262.41;5030688;28;20103;-70
2022/08/18 11:45:28;;;;;;;;;;;;;;;44.68;14.11;100264.56;5032691;28;20052;-71
2022/08/18 11:48:18;;;;;;;1.73;1.00;;;;;;;45.05;14.96;100257.31;5031242;28;19905;-71
2022/08/18 11:51:00;;;;;;;0.93;0.80;;;;;;;46.74;13.87;100257.38;5028426;28;20025;-73
2022/08/18 11:53:31;;;;;;;0.98;0.70;;;;;;;46.95;12.59;100257.94;5027717;28;20393;-73
2022/08/18 11:56:17;;;;;;;1.70;0.80;;;;;;;46.58;12.93;100256.03;5035894;28;20024;-72
2022/08/18 11:58:49;;;;;;;1.42;0.85;;;;;;;46.89;12.45;100253.44;5025536;28;20030;-73
2022/08/18 12:01:34;;;;;;;0.80;0.80;;;;;;;46.27;12.72;100254.13;5025410;28;20043;-72
2022/08/18 12:04:07;;;;;;;1.20;0.93;;;;;;;45.93;12.47;100260.56;5021892;28;20159;-72
2022/08/18 12:06:34;;;;;;;1.40;0.90;;;;;;;46.04;13.22;100247.47;5006366;28;20040;-72
2022/08/18 12:09:15;;;;;;;1.40;0.75;;;;;;;47.28;12.33;100250.53;5031446;28;20104;-71
2022/08/18 12:11:54;;;;;;;2.70;1.00;;;;;;;48.24;12.02;100249.50;5027125;28;20467;-69
2022/08/18 12:14:23;;;;;;;1.40;0.93;;;;;;;46.61;12.08;100243.44;5029387;28;20083;-71
2022/08/18 12:16:49;;;;;;;1.30;1.00;;;;;;;42.31;15.06;100230.13;5030375;28;20087;-71